Time;durP1;ratioP1;P1;durP2;ratioP2;P2;SDS_P1;SDS_P2;PMS_P1;PMS_P2;Temp;Humidity;BMP_temperature;BMP_pressure;BME280_temperature;BME280_humidity;BME280_pressure;Samples;Min_cycle;Max_cycle;Signal;HPM_P1;HPM_P2
2021/07/19 00:00:22;;;;;;;5.55;2.00;;;17.30;86.60;;;;;;6216350;23;20051;-74
2021/07/19 00:02:54;;;;;;;6.82;1.65;;;17.30;86.90;;;;;;6219489;23;20016;-74
2021/07/19 00:05:27;;;;;;;3.60;1.70;;;17.40;86.90;;;;;;6218595;23;20075;-75
2021/07/19 00:07:56;;;;;;;5.57;1.90;;;17.30;86.90;;;;;;6192200;23;20259;-75
2021/07/19 00:10:25;;;;;;;6.30;2.00;;;17.20;87.00;;;;;;6215239;23;20021;-76
2021/07/19 00:12:53;;;;;;;6.30;2.23;;;17.20;86.80;;;;;;6215826;23;20032;-74
2021/07/19 00:15:23;;;;;;;4.57;1.90;;;17.20;86.80;;;;;;6216543;23;20074;-74
2021/07/19 00:17:50;;;;;;;;;;;17.20;86.70;;;;;;6220069;23;20320;-74
2021/07/19 00:20:19;;;;;;;4.15;2.22;;;17.20;86.50;;;;;;6190965;23;19930;-74
2021/07/19 00:22:47;;;;;;;3.67;1.45;;;17.20;86.50;;;;;;6219228;23;20021;-74
2021/07/19 00:25:17;;;;;;;6.43;2.13;;;17.20;86.60;;;;;;6217855;23;20320;-74
2021/07/19 00:27:46;;;;;;;;;;;17.10;86.70;;;;;;6219244;23;20024;-75
2021/07/19 00:30:16;;;;;;;3.78;1.67;;;17.10;86.50;;;;;;6219283;23;19935;-74
2021/07/19 00:32:44;;;;;;;6.38;2.20;;;17.10;86.50;;;;;;6191857;23;20075;-75
2021/07/19 00:35:13;;;;;;;3.78;1.58;;;17.00;86.80;;;;;;6187236;23;20035;-74
2021/07/19 00:37:40;;;;;;;3.15;1.38;;;16.90;86.70;;;;;;6217979;23;20266;-75
2021/07/19 00:40:11;;;;;;;3.33;1.73;;;16.90;86.90;;;;;;6221641;23;20017;-74
2021/07/19 00:42:40;;;;;;;5.53;2.35;;;16.80;87.30;;;;;;6194304;23;20327;-74
2021/07/19 00:45:12;;;;;;;5.57;2.00;;;16.70;87.60;;;;;;6193652;23;20079;-75
2021/07/19 00:47:40;;;;;;;4.70;1.73;;;16.70;87.60;;;;;;6222063;23;20208;-74
2021/07/19 00:50:08;;;;;;;4.38;2.10;;;16.70;87.40;;;;;;6193779;23;20080;-74
2021/07/19 00:52:37;;;;;;;5.03;1.80;;;16.80;87.20;;;;;;6194342;23;20035;-75
2021/07/19 00:55:07;;;;;;;4.10;1.45;;;16.70;87.40;;;;;;6194902;23;20070;-75
2021/07/19 00:57:38;;;;;;;4.97;1.52;;;16.70;87.30;;;;;;6195103;23;20027;-75
2021/07/19 01:00:08;;;;;;;4.10;1.98;;;16.70;87.60;;;;;;6217886;23;20107;-74
2021/07/19 01:02:38;;;;;;;3.03;1.48;;;16.60;87.80;;;;;;6195077;23;20064;-75
2021/07/19 01:05:07;;;;;;;;;;;16.60;87.80;;;;;;6194665;23;20122;-74
2021/07/19 01:07:37;;;;;;;8.27;2.30;;;16.60;88.10;;;;;;6221233;23;19912;-74
2021/07/19 01:10:13;;;;;;;9.77;3.00;;;16.60;87.70;;;;;;6195019;23;20355;-74
2021/07/19 01:12:42;;;;;;;8.43;1.67;;;16.60;87.90;;;;;;6195971;23;20032;-74
2021/07/19 01:15:10;;;;;;;5.32;2.03;;;16.60;87.60;;;;;;6219411;23;20028;-75
2021/07/19 01:17:44;;;;;;;7.90;2.23;;;16.50;88.00;;;;;;6194701;23;20239;-74
2021/07/19 01:20:12;;;;;;;5.47;2.60;;;16.50;88.00;;;;;;6220193;23;20024;-74
2021/07/19 01:23:21;;;;;;;12.73;2.70;;;16.50;87.80;;;;;;6215711;23;20051;-74
2021/07/19 01:26:18;;;;;;;7.40;1.67;;;16.50;87.90;;;;;;6196709;23;20036;-74
2021/07/19 01:28:48;;;;;;;4.03;1.67;;;16.40;88.40;;;;;;6190639;23;20189;-75
2021/07/19 01:31:18;;;;;;;;;;;16.40;88.30;;;;;;6193502;23;20025;-74
2021/07/19 01:33:48;;;;;;;4.90;1.63;;;16.40;88.10;;;;;;6221499;23;19924;-74
2021/07/19 01:36:24;;;;;;;5.72;1.83;;;16.30;88.20;;;;;;6193483;23;20028;-74
2021/07/19 01:39:12;;;;;;;5.40;2.05;;;16.20;88.20;;;;;;6196758;23;20305;-74
2021/07/19 01:41:42;;;;;;;4.47;2.13;;;16.20;88.50;;;;;;6192479;23;20115;-75
2021/07/19 01:44:13;;;;;;;4.75;1.70;;;16.20;88.30;;;;;;6191086;23;20035;-75
2021/07/19 01:46:42;;;;;;;6.35;2.97;;;16.20;88.30;;;;;;6193198;23;20040;-75
2021/07/19 01:49:12;;;;;;;4.43;2.10;;;16.20;88.30;;;;;;6219342;23;20025;-75
2021/07/19 01:51:40;;;;;;;6.72;1.95;;;16.20;88.40;;;;;;6218448;23;20044;-75
2021/07/19 01:54:10;;;;;;;3.53;1.88;;;16.10;88.60;;;;;;6188428;23;20020;-74
2021/07/19 01:56:40;;;;;;;8.60;2.50;;;16.10;88.70;;;;;;6216561;23;20094;-74
2021/07/19 01:59:11;;;;;;;5.18;1.73;;;16.10;88.80;;;;;;6217271;23;20017;-74
2021/07/19 02:01:48;;;;;;;5.10;1.75;;;16.10;89.10;;;;;;6186412;23;20025;-74
2021/07/19 02:04:19;;;;;;;7.72;1.92;;;16.10;89.00;;;;;;6189704;23;20037;-75
2021/07/19 02:06:48;;;;;;;6.05;2.20;;;16.10;89.10;;;;;;6190195;23;20020;-74
2021/07/19 02:09:19;;;;;;;5.78;2.03;;;16.10;89.30;;;;;;6191260;23;20028;-75
2021/07/19 02:11:57;;;;;;;7.18;2.10;;;16.10;89.20;;;;;;6192518;23;20031;-74
2021/07/19 02:14:26;;;;;;;7.90;2.05;;;16.10;89.20;;;;;;6192035;23;20050;-74
2021/07/19 02:17:04;;;;;;;5.68;2.17;;;16.10;89.20;;;;;;6191702;23;20075;-74
2021/07/19 02:19:33;;;;;;;3.67;1.60;;;16.10;89.30;;;;;;6189759;23;20027;-75
2021/07/19 02:22:05;;;;;;;4.07;1.73;;;16.00;89.40;;;;;;6189611;23;20073;-74
2021/07/19 02:24:49;;;;;;;5.15;1.98;;;15.90;89.70;;;;;;6192714;23;20028;-74
2021/07/19 02:27:20;;;;;;;4.10;1.70;;;15.90;89.60;;;;;;6218367;23;20119;-74
2021/07/19 02:29:51;;;;;;;4.00;1.88;;;16.00;89.40;;;;;;6194745;23;20043;-74
2021/07/19 02:32:22;;;;;;;3.78;1.90;;;15.90;89.40;;;;;;6077553;23;21490;-74
2021/07/19 02:34:53;;;;;;;4.65;2.03;;;15.90;89.40;;;;;;426785;23;10022875;-74
2021/07/19 02:37:23;;;;;;;6.07;2.22;;;16.00;89.30;;;;;;6192566;23;20360;-75
2021/07/19 02:40:25;;;;;;;4.88;2.33;;;15.90;89.60;;;;;;6185964;23;20033;-75
2021/07/19 02:42:57;;;;;;;5.88;2.75;;;16.00;89.60;;;;;;6221863;23;20255;-74
2021/07/19 02:45:29;;;;;;;7.82;2.80;;;16.10;89.40;;;;;;6195541;23;20027;-75
2021/07/19 02:48:02;;;;;;;6.20;1.88;;;16.00;89.50;;;;;;6193283;23;20020;-74
2021/07/19 02:50:41;;;;;;;6.63;2.30;;;16.00;89.50;;;;;;6218017;23;20264;-75
2021/07/19 02:53:11;;;;;;;5.40;2.42;;;16.00;89.50;;;;;;6219487;23;20351;-75
2021/07/19 02:55:40;;;;;;;5.73;2.57;;;15.90;89.70;;;;;;6214125;23;20024;-75
2021/07/19 02:58:09;;;;;;;6.68;2.00;;;15.90;89.80;;;;;;6218700;23;20316;-75
2021/07/19 03:00:41;;;;;;;4.00;1.95;;;15.90;89.70;;;;;;6185293;23;20199;-74
2021/07/19 03:03:15;;;;;;;5.30;2.00;;;15.90;89.80;;;;;;6190249;23;20009;-74
2021/07/19 03:05:45;;;;;;;5.53;2.03;;;15.80;89.80;;;;;;6190859;23;20335;-75
2021/07/19 03:08:19;;;;;;;3.58;1.70;;;15.80;89.70;;;;;;6218766;23;20036;-75
2021/07/19 03:11:26;;;;;;;5.82;2.10;;;15.80;89.80;;;;;;6133613;23;20031;-74
2021/07/19 03:13:59;;;;;;;5.47;1.77;;;15.80;89.80;;;;;;6187774;23;20028;-75
2021/07/19 03:16:31;;;;;;;5.53;2.25;;;15.80;89.70;;;;;;6189791;23;20029;-75
2021/07/19 03:19:03;;;;;;;4.90;2.03;;;15.80;89.80;;;;;;6217989;23;20091;-75
2021/07/19 03:21:33;;;;;;;7.85;2.15;;;15.70;89.90;;;;;;6189254;23;20039;-75
2021/07/19 03:24:10;;;;;;;5.88;1.98;;;15.70;89.90;;;;;;6217356;23;20209;-75
2021/07/19 03:26:40;;;;;;;3.67;1.75;;;15.70;90.10;;;;;;6215187;23;20024;-74
2021/07/19 03:29:09;;;;;;;4.55;1.90;;;15.60;90.40;;;;;;6216111;23;20351;-74
2021/07/19 03:31:48;;;;;;;5.47;1.83;;;15.60;90.30;;;;;;6189932;23;20016;-75
2021/07/19 03:34:20;;;;;;;4.68;1.75;;;15.60;90.20;;;;;;6217435;23;20023;-75
2021/07/19 03:36:52;;;;;;;6.90;1.90;;;15.60;90.30;;;;;;6190146;23;20052;-75
2021/07/19 03:39:25;;;;;;;5.68;1.92;;;15.60;90.10;;;;;;6218029;23;20440;-75
2021/07/19 03:41:59;;;;;;;5.50;1.60;;;15.70;90.10;;;;;;6217592;23;20382;-75
2021/07/19 03:44:28;;;;;;;4.00;2.20;;;15.60;90.20;;;;;;6215923;23;20017;-74
2021/07/19 03:46:58;;;;;;;9.10;2.15;;;15.70;90.00;;;;;;6217145;23;20024;-75
2021/07/19 03:49:28;;;;;;;6.53;2.35;;;15.70;90.00;;;;;;6188409;23;20252;-75
2021/07/19 03:51:55;;;;;;;7.90;2.10;;;15.70;90.00;;;;;;6189025;23;20016;-75
2021/07/19 03:54:24;;;;;;;5.03;1.45;;;15.70;89.80;;;;;;6188421;23;20040;-75
2021/07/19 03:56:52;;;;;;;4.15;1.80;;;15.70;89.50;;;;;;6213355;23;20040;-75
2021/07/19 03:59:23;;;;;;;4.28;1.70;;;15.70;89.40;;;;;;6216275;23;20047;-75
2021/07/19 04:01:53;;;;;;;3.33;1.77;;;15.60;89.60;;;;;;6184844;23;20339;-75
2021/07/19 04:04:37;;;;;;;11.48;2.58;;;15.60;89.70;;;;;;6190754;23;20028;-75
2021/07/19 04:07:12;;;;;;;5.75;2.30;;;15.60;89.80;;;;;;6216140;23;20024;-74
2021/07/19 04:09:43;;;;;;;4.45;1.80;;;15.60;89.90;;;;;;6189060;23;20035;-75
2021/07/19 04:12:13;;;;;;;6.43;1.95;;;15.60;89.80;;;;;;6188963;23;20099;-74
2021/07/19 04:14:46;;;;;;;5.95;2.28;;;15.70;89.30;;;;;;6214638;23;20080;-75
2021/07/19 04:17:14;;;;;;;6.25;1.92;;;15.60;89.20;;;;;;6216727;23;20032;-75
2021/07/19 04:19:43;;;;;;;6.88;2.10;;;15.60;89.00;;;;;;6217061;23;20031;-75
2021/07/19 04:22:15;;;;;;;4.45;2.03;;;15.60;89.00;;;;;;6217927;23;20032;-75
2021/07/19 04:24:52;;;;;;;4.80;2.17;;;15.70;89.20;;;;;;6189495;23;20043;-75
2021/07/19 04:27:21;;;;;;;4.00;1.85;;;15.70;88.90;;;;;;6189238;23;20370;-74
2021/07/19 04:29:52;;;;;;;18.40;2.90;;;15.70;89.10;;;;;;6216250;23;20070;-74
2021/07/19 04:32:23;;;;;;;6.15;2.10;;;15.70;89.20;;;;;;6219197;23;20013;-75
2021/07/19 04:34:53;;;;;;;7.25;2.53;;;15.80;89.10;;;;;;6216329;23;20111;-74
2021/07/19 04:37:22;;;;;;;5.38;2.30;;;15.80;89.20;;;;;;6217540;23;20063;-75
2021/07/19 04:39:51;;;;;;;4.07;2.10;;;15.80;88.90;;;;;;6216148;23;20024;-75
2021/07/19 04:42:27;;;;;;;5.18;1.98;;;15.80;89.00;;;;;;6216817;23;20115;-75
2021/07/19 04:44:54;;;;;;;4.07;1.58;;;15.80;89.10;;;;;;6189591;23;20029;-74
2021/07/19 04:47:22;;;;;;;9.70;3.03;;;15.90;89.00;;;;;;6218461;23;20043;-74
2021/07/19 04:49:49;;;;;;;5.35;1.73;;;16.00;88.90;;;;;;6217379;23;20025;-74
2021/07/19 04:52:16;;;;;;;4.80;2.20;;;16.00;89.00;;;;;;6216752;23;20024;-75
2021/07/19 04:54:46;;;;;;;5.40;2.40;;;16.00;88.90;;;;;;6188914;23;20326;-75
2021/07/19 04:57:15;;;;;;;6.20;1.95;;;16.00;89.10;;;;;;6215689;23;20025;-75
2021/07/19 04:59:45;;;;;;;5.65;2.00;;;16.10;88.90;;;;;;6218403;23;20047;-75
2021/07/19 05:02:14;;;;;;;;;;;16.20;88.80;;;;;;6184527;23;20232;-74
2021/07/19 05:04:42;;;;;;;5.53;2.30;;;16.20;88.90;;;;;;6214592;23;19938;-75
2021/07/19 05:07:11;;;;;;;5.38;2.35;;;16.20;88.90;;;;;;6219317;23;20031;-75
2021/07/19 05:09:40;;;;;;;4.80;2.30;;;16.20;88.80;;;;;;6215756;23;20024;-74
2021/07/19 05:12:11;;;;;;;6.63;2.50;;;16.20;88.80;;;;;;6216367;23;20040;-75
2021/07/19 05:14:40;;;;;;;8.77;2.55;;;16.40;88.60;;;;;;6193063;23;20375;-74
2021/07/19 05:17:10;;;;;;;8.93;2.60;;;16.40;88.50;;;;;;6213509;23;20029;-75
2021/07/19 05:19:39;;;;;;;5.30;2.10;;;16.50;88.40;;;;;;6186558;23;20028;-75
2021/07/19 05:22:10;;;;;;;8.27;2.28;;;16.60;88.10;;;;;;6215275;23;20027;-75
2021/07/19 05:24:38;;;;;;;4.82;2.47;;;16.70;88.00;;;;;;6213647;23;20024;-74
2021/07/19 05:27:07;;;;;;;5.45;2.47;;;16.70;87.80;;;;;;6213641;23;20068;-75
2021/07/19 05:29:40;;;;;;;6.05;2.35;;;16.80;87.70;;;;;;6216647;23;20047;-75
2021/07/19 05:32:09;;;;;;;4.15;2.05;;;16.90;87.40;;;;;;6214854;23;20072;-74
2021/07/19 05:34:37;;;;;;;4.40;2.25;;;17.00;87.10;;;;;;6211835;23;20143;-74
2021/07/19 05:37:04;;;;;;;8.73;2.47;;;17.10;87.10;;;;;;6213249;23;20024;-74
2021/07/19 05:39:32;;;;;;;6.57;2.30;;;17.10;87.20;;;;;;6214124;23;20031;-74
2021/07/19 05:41:59;;;;;;;8.07;2.50;;;17.20;87.00;;;;;;6216034;23;20024;-74
2021/07/19 05:44:26;;;;;;;8.00;2.10;;;17.30;86.70;;;;;;6215189;23;20051;-74
2021/07/19 05:46:55;;;;;;;7.43;2.67;;;17.40;86.60;;;;;;6215090;23;20390;-74
2021/07/19 05:49:28;;;;;;;6.95;2.58;;;17.50;86.50;;;;;;6216036;23;20025;-74
2021/07/19 05:51:55;;;;;;;7.35;2.83;;;17.60;86.40;;;;;;6216614;23;20332;-75
2021/07/19 05:54:23;;;;;;;5.13;2.42;;;17.70;86.30;;;;;;6216016;23;20259;-74
2021/07/19 05:56:50;;;;;;;4.18;2.42;;;17.80;86.40;;;;;;6219782;23;20347;-75
2021/07/19 05:59:18;;;;;;;5.38;2.28;;;18.00;86.10;;;;;;6216301;23;20044;-75
2021/07/19 06:01:45;;;;;;;4.95;2.30;;;18.10;85.50;;;;;;6212002;23;20354;-75
2021/07/19 06:04:13;;;;;;;5.38;2.30;;;18.20;85.40;;;;;;6218989;23;20017;-75
2021/07/19 06:06:41;;;;;;;5.72;2.58;;;18.30;85.30;;;;;;6219679;23;20036;-75
2021/07/19 06:09:08;;;;;;;8.55;2.47;;;18.40;85.20;;;;;;6214324;23;20277;-75
2021/07/19 06:11:35;;;;;;;4.68;2.05;;;18.60;84.90;;;;;;6220007;23;20024;-74
2021/07/19 06:14:02;;;;;;;8.55;2.40;;;18.80;84.80;;;;;;6219632;23;20013;-75
2021/07/19 06:16:31;;;;;;;5.72;2.10;;;19.00;84.10;;;;;;6219175;23;20047;-75
2021/07/19 06:18:58;;;;;;;6.50;2.15;;;19.10;83.90;;;;;;6216012;23;20024;-75
2021/07/19 06:21:27;;;;;;;4.40;1.95;;;19.30;83.20;;;;;;6216116;23;20088;-75
2021/07/19 06:23:54;;;;;;;7.65;2.33;;;19.40;82.90;;;;;;6216757;23;20020;-74
2021/07/19 06:26:21;;;;;;;5.28;2.30;;;19.50;82.80;;;;;;6217656;23;20024;-74
2021/07/19 06:28:49;;;;;;;5.35;2.10;;;19.60;82.00;;;;;;6216801;23;20036;-75
2021/07/19 06:31:16;;;;;;;5.13;1.85;;;19.80;82.20;;;;;;6217108;23;20024;-74
2021/07/19 06:33:43;;;;;;;4.35;1.75;;;20.10;81.20;;;;;;6215453;23;20021;-75
2021/07/19 06:36:11;;;;;;;5.50;2.47;;;20.20;80.40;;;;;;6216304;23;20040;-74
2021/07/19 06:38:39;;;;;;;5.10;2.67;;;20.40;79.50;;;;;;6191449;23;20039;-75
2021/07/19 06:41:11;;;;;;;5.45;1.85;;;20.60;78.70;;;;;;6217469;23;20220;-75
2021/07/19 06:43:38;;;;;;;6.82;2.03;;;20.70;78.10;;;;;;6189891;23;20382;-75
2021/07/19 06:46:06;;;;;;;7.53;2.63;;;20.80;77.60;;;;;;6215763;23;20031;-74
2021/07/19 06:48:33;;;;;;;5.30;2.13;;;21.00;75.80;;;;;;6190268;23;20055;-75
2021/07/19 06:51:00;;;;;;;4.65;2.10;;;21.10;75.80;;;;;;6189139;23;20130;-75
2021/07/19 06:53:29;;;;;;;5.13;2.00;;;21.30;75.40;;;;;;6217632;23;20131;-75
2021/07/19 06:55:57;;;;;;;5.53;2.58;;;21.60;74.10;;;;;;6214931;23;20193;-75
2021/07/19 06:58:25;;;;;;;5.38;2.30;;;21.70;74.20;;;;;;6215448;23;20016;-75
2021/07/19 07:00:52;;;;;;;5.03;2.38;;;21.90;72.30;;;;;;6210539;23;20016;-74
2021/07/19 07:03:19;;;;;;;5.80;2.13;;;22.10;72.50;;;;;;6213176;23;20051;-74
2021/07/19 07:05:46;;;;;;;6.00;2.30;;;22.30;70.60;;;;;;6214414;23;20033;-74
2021/07/19 07:08:14;;;;;;;8.35;2.35;;;22.50;70.30;;;;;;6189835;23;20360;-74
2021/07/19 07:10:41;;;;;;;5.00;1.85;;;22.70;68.60;;;;;;6189472;23;20028;-74
2021/07/19 07:13:10;;;;;;;6.93;2.20;;;22.70;69.50;;;;;;6188656;23;20025;-73
2021/07/19 07:15:38;;;;;;;7.55;1.70;;;22.80;66.70;;;;;;6218424;23;20059;-73
2021/07/19 07:18:06;;;;;;;7.57;2.30;;;22.60;66.50;;;;;;6214191;23;20108;-73
2021/07/19 07:20:34;;;;;;;4.80;1.77;;;22.60;66.10;;;;;;6214992;23;20017;-76
2021/07/19 07:23:02;;;;;;;4.82;2.28;;;22.80;67.10;;;;;;6217573;23;20079;-76
2021/07/19 07:25:32;;;;;;;7.22;2.03;;;22.90;66.10;;;;;;6216250;23;20304;-73
2021/07/19 07:27:59;;;;;;;4.72;1.63;;;22.90;65.60;;;;;;6215625;23;20051;-76
2021/07/19 07:30:28;;;;;;;9.65;1.92;;;22.70;66.50;;;;;;6213664;23;20028;-76
2021/07/19 07:32:55;;;;;;;6.63;2.83;;;22.70;65.30;;;;;;6217047;23;20027;-74
2021/07/19 07:35:23;;;;;;;4.25;2.08;;;22.60;66.70;;;;;;6216761;23;20032;-75
2021/07/19 07:37:50;;;;;;;5.15;1.85;;;22.60;66.70;;;;;;6217917;23;20024;-75
2021/07/19 07:40:19;;;;;;;5.30;1.95;;;22.50;67.10;;;;;;6217480;23;20024;-75
2021/07/19 07:42:47;;;;;;;7.85;2.00;;;22.40;66.30;;;;;;6215954;23;20378;-75
2021/07/19 07:45:15;;;;;;;4.45;1.67;;;22.20;67.70;;;;;;6214552;23;20046;-73
2021/07/19 07:47:44;;;;;;;6.65;2.25;;;22.30;67.30;;;;;;6217526;23;20024;-75
2021/07/19 07:50:12;;;;;;;5.18;2.15;;;22.30;67.60;;;;;;6217195;23;20024;-74
2021/07/19 07:52:40;;;;;;;3.95;1.95;;;22.40;67.30;;;;;;6217878;23;20027;-75
2021/07/19 07:55:09;;;;;;;5.47;2.35;;;22.50;67.70;;;;;;6216441;23;20024;-75
2021/07/19 07:57:36;;;;;;;7.97;2.10;;;22.60;65.50;;;;;;6221260;23;20347;-75
2021/07/19 08:00:20;;;;;;;3.97;1.83;;;22.60;66.70;;;;;;6185279;23;20028;-75
2021/07/19 08:02:48;;;;;;;6.15;2.20;;;22.60;67.00;;;;;;6221159;23;20019;-75
2021/07/19 08:05:16;;;;;;;4.13;2.00;;;22.60;67.50;;;;;;6214795;23;20048;-75
2021/07/19 08:07:43;;;;;;;4.38;2.05;;;22.90;67.00;;;;;;6224728;23;20016;-76
2021/07/19 08:10:14;;;;;;;4.72;1.90;;;23.10;64.60;;;;;;6190905;23;20263;-75
2021/07/19 08:12:43;;;;;;;4.25;1.80;;;23.10;65.30;;;;;;6217975;23;20027;-76
2021/07/19 08:15:12;;;;;;;6.40;2.40;;;23.50;65.20;;;;;;6192553;23;20048;-76
2021/07/19 08:17:40;;;;;;;6.85;2.35;;;23.70;63.70;;;;;;6217582;23;20227;-75
2021/07/19 08:20:11;;;;;;;5.32;1.75;;;23.90;63.30;;;;;;6191284;23;20028;-75
2021/07/19 08:22:42;;;;;;;3.10;1.63;;;24.00;63.10;;;;;;6215804;23;20016;-75
2021/07/19 08:25:10;;;;;;;7.03;2.33;;;23.90;63.50;;;;;;6218876;23;20022;-76
2021/07/19 08:27:37;;;;;;;5.72;2.00;;;24.20;62.10;;;;;;6218044;23;20036;-75
2021/07/19 08:30:06;;;;;;;4.80;2.13;;;24.10;61.80;;;;;;6217588;23;20032;-75
2021/07/19 08:32:33;;;;;;;4.82;2.10;;;24.10;61.90;;;;;;6219296;23;20033;-75
2021/07/19 08:35:00;;;;;;;5.78;2.20;;;24.30;62.20;;;;;;6213642;23;20025;-75
2021/07/19 08:37:31;;;;;;;4.28;2.45;;;24.50;59.90;;;;;;6220355;23;20028;-76
2021/07/19 08:39:58;;;;;;;6.70;2.40;;;24.60;58.90;;;;;;6219110;23;20224;-75
2021/07/19 08:42:26;;;;;;;5.53;1.90;;;24.50;59.90;;;;;;6217168;23;20024;-75
2021/07/19 08:44:53;;;;;;;4.35;1.83;;;24.50;59.80;;;;;;6217862;23;20031;-75
2021/07/19 08:47:20;;;;;;;3.42;1.80;;;25.00;59.40;;;;;;6218018;23;20047;-75
2021/07/19 08:49:47;;;;;;;3.78;1.92;;;25.40;57.00;;;;;;6191306;23;20338;-75
2021/07/19 08:52:17;;;;;;;6.65;2.20;;;25.50;55.70;;;;;;6192906;23;20427;-76
2021/07/19 08:54:47;;;;;;;3.80;1.63;;;25.60;54.80;;;;;;6216671;23;20044;-76
2021/07/19 08:57:17;;;;;;;3.75;1.92;;;25.50;56.00;;;;;;6214103;23;20095;-77
2021/07/19 08:59:44;;;;;;;;;;;25.40;54.60;;;;;;6189026;23;20312;-76
2021/07/19 09:02:12;;;;;;;2.63;1.55;;;25.30;56.60;;;;;;6187315;23;19920;-76
2021/07/19 09:04:39;;;;;;;3.85;1.58;;;25.40;56.00;;;;;;6211396;23;20359;-76
2021/07/19 09:07:06;;;;;;;7.78;2.03;;;25.20;56.80;;;;;;6214222;23;20025;-76
2021/07/19 09:09:35;;;;;;;4.90;1.92;;;25.20;55.30;;;;;;6214855;23;20039;-76
2021/07/19 09:12:05;;;;;;;7.40;2.30;;;25.00;56.50;;;;;;6217268;23;20047;-76
2021/07/19 09:14:33;;;;;;;4.70;1.90;;;25.20;56.40;;;;;;6215452;23;20332;-75
2021/07/19 09:17:00;;;;;;;4.57;2.10;;;25.30;55.20;;;;;;6214418;23;20025;-76
2021/07/19 09:19:30;;;;;;;4.15;1.85;;;25.20;55.30;;;;;;6215134;23;20028;-76
2021/07/19 09:21:59;;;;;;;8.48;2.60;;;25.10;56.90;;;;;;6215041;23;20162;-76
2021/07/19 09:24:29;;;;;;;4.13;2.22;;;25.30;56.90;;;;;;6188762;23;20252;-76
2021/07/19 09:26:56;;;;;;;;;;;25.40;56.10;;;;;;6215541;23;20228;-76
2021/07/19 09:29:26;;;;;;;4.38;1.80;;;25.50;55.60;;;;;;6214959;23;19931;-75
2021/07/19 09:31:55;;;;;;;5.30;2.33;;;25.50;57.10;;;;;;6213922;23;20203;-76
2021/07/19 09:34:24;;;;;;;7.00;2.30;;;25.60;54.80;;;;;;6214976;23;20264;-76
2021/07/19 09:36:59;;;;;;;5.28;2.20;;;25.60;55.10;;;;;;6215329;23;20030;-76
2021/07/19 09:39:30;;;;;;;8.40;2.30;;;25.90;55.00;;;;;;6214688;23;20016;-76
2021/07/19 09:42:08;;;;;;;6.30;2.53;;;25.80;52.10;;;;;;6219129;23;20264;-76
2021/07/19 09:44:38;;;;;;;3.17;1.77;;;25.80;54.50;;;;;;6191134;23;20208;-76
2021/07/19 09:47:07;;;;;;;5.07;2.20;;;25.80;54.60;;;;;;6217259;23;20031;-75
2021/07/19 09:49:34;;;;;;;4.85;2.40;;;25.60;54.00;;;;;;6218326;23;20024;-76
2021/07/19 09:52:04;;;;;;;10.48;2.40;;;25.50;53.30;;;;;;6216936;23;20024;-76
2021/07/19 09:54:37;;;;;;;6.05;2.40;;;25.20;54.00;;;;;;6216063;23;20071;-75
2021/07/19 09:57:05;;;;;;;6.30;2.78;;;25.00;54.10;;;;;;6216292;23;20032;-76
2021/07/19 09:59:33;;;;;;;6.40;2.42;;;25.20;55.00;;;;;;6218984;23;20024;-76
2021/07/19 10:02:02;;;;;;;6.13;2.55;;;25.50;54.90;;;;;;6214560;23;20072;-76
2021/07/19 10:04:31;;;;;;;6.55;2.60;;;25.50;53.30;;;;;;6217173;23;20020;-76
2021/07/19 10:07:00;;;;;;;5.38;2.70;;;25.60;52.60;;;;;;6191037;23;20027;-76
2021/07/19 10:09:37;;;;;;;7.15;3.05;;;26.10;54.60;;;;;;6216095;23;20082;-76
2021/07/19 10:12:15;;;;;;;6.25;2.45;;;26.50;52.40;;;;;;6191510;23;20055;-76
2021/07/19 10:14:45;;;;;;;6.88;2.85;;;26.80;52.50;;;;;;6192336;23;20077;-75
2021/07/19 10:17:14;;;;;;;7.95;2.85;;;26.90;49.60;;;;;;6217440;23;20338;-76
2021/07/19 10:19:42;;;;;;;5.43;2.83;;;26.70;51.50;;;;;;6218417;23;20025;-75
2021/07/19 10:22:11;;;;;;;14.80;4.53;;;27.10;49.80;;;;;;6216487;23;20557;-75
2021/07/19 10:24:41;;;;;;;6.90;3.83;;;27.50;48.30;;;;;;6216683;23;20027;-77
2021/07/19 10:27:13;;;;;;;8.43;2.92;;;27.70;47.60;;;;;;6217428;23;20024;-76
2021/07/19 10:29:41;;;;;;;6.68;3.00;;;27.00;50.60;;;;;;6218594;23;20024;-77
2021/07/19 10:32:09;;;;;;;7.50;2.58;;;27.00;50.30;;;;;;6218070;23;20043;-76
2021/07/19 10:34:50;;;;;;;6.38;2.60;;;26.70;50.20;;;;;;6216019;23;20021;-75
2021/07/19 10:37:22;;;;;;;5.63;2.92;;;27.60;48.40;;;;;;6218757;23;20016;-76
2021/07/19 10:39:54;;;;;;;9.65;3.08;;;28.90;46.50;;;;;;6192581;23;20035;-74
2021/07/19 10:42:22;;;;;;;6.20;3.28;;;29.70;43.80;;;;;;6216366;23;20299;-76
2021/07/19 10:44:50;;;;;;;9.07;4.15;;;30.50;42.50;;;;;;6186430;23;20028;-76
2021/07/19 10:47:21;;;;;;;9.05;4.22;;;31.20;39.80;;;;;;6189276;23;20217;-75
2021/07/19 10:49:58;;;;;;;9.25;4.18;;;31.60;38.60;;;;;;6215119;23;20029;-75
2021/07/19 10:52:37;;;;;;;9.15;3.20;;;31.70;38.40;;;;;;6216288;23;20331;-75
2021/07/19 10:55:06;;;;;;;8.32;4.05;;;32.10;37.60;;;;;;6217942;23;20316;-75
2021/07/19 10:57:37;;;;;;;7.82;3.78;;;32.50;36.50;;;;;;6192017;23;20028;-75
2021/07/19 11:00:07;;;;;;;6.13;3.22;;;33.10;36.80;;;;;;6190399;23;20021;-75
2021/07/19 11:02:34;;;;;;;6.53;2.95;;;33.40;36.50;;;;;;6191544;23;20027;-75
2021/07/19 11:05:03;;;;;;;7.35;3.53;;;33.40;35.30;;;;;;6217256;23;20013;-75
2021/07/19 11:07:40;;;;;;;7.55;4.30;;;33.50;35.30;;;;;;6213744;23;20029;-75
2021/07/19 11:10:15;;;;;;;7.30;3.75;;;33.70;33.20;;;;;;6187990;23;20344;-75
2021/07/19 11:12:48;;;;;;;9.20;3.90;;;33.50;34.10;;;;;;6188554;23;20029;-75
2021/07/19 11:15:18;;;;;;;10.65;5.15;;;33.80;34.90;;;;;;6186710;23;20297;-75
2021/07/19 11:17:45;;;;;;;11.05;4.93;;;33.50;32.90;;;;;;6215419;23;20025;-75
2021/07/19 11:20:16;;;;;;;10.98;5.22;;;33.40;34.30;;;;;;6215685;23;20233;-75
2021/07/19 11:22:43;;;;;;;10.27;5.65;;;34.00;33.60;;;;;;6187000;23;20059;-75
2021/07/19 11:25:14;;;;;;;6.95;3.80;;;34.40;32.10;;;;;;6213436;23;20104;-75
2021/07/19 11:27:44;;;;;;;9.35;5.18;;;34.40;33.50;;;;;;6212738;23;20024;-75
2021/07/19 11:30:13;;;;;;;9.73;4.50;;;34.70;31.90;;;;;;6212354;23;20319;-75
2021/07/19 11:32:41;;;;;;;10.93;5.15;;;34.70;33.30;;;;;;6218060;23;20023;-75
2021/07/19 11:35:12;;;;;;;9.77;5.17;;;34.80;32.10;;;;;;6216402;23;20204;-73
2021/07/19 11:37:44;;;;;;;9.48;4.82;;;34.40;32.30;;;;;;6190958;23;20209;-75
2021/07/19 11:40:13;;;;;;;9.82;6.13;;;35.30;31.30;;;;;;6189495;23;20200;-75
2021/07/19 11:42:42;;;;;;;8.02;4.63;;;35.20;30.60;;;;;;6218714;23;20040;-76
2021/07/19 11:45:13;;;;;;;10.77;6.05;;;35.50;32.20;;;;;;6216547;23;20024;-75
2021/07/19 11:47:46;;;;;;;10.32;5.25;;;35.30;29.90;;;;;;6191379;23;20035;-75
2021/07/19 11:50:16;;;;;;;10.80;6.03;;;35.50;30.90;;;;;;6219650;23;20025;-75
2021/07/19 11:52:46;;;;;;;10.45;5.93;;;35.30;31.10;;;;;;6195858;23;20020;-75
2021/07/19 11:55:15;;;;;;;11.05;6.15;;;35.50;31.00;;;;;;6195191;23;20300;-75
2021/07/19 11:57:47;;;;;;;10.30;6.30;;;35.20;30.60;;;;;;6221491;23;20020;-74
2021/07/19 12:00:26;;;;;;;15.27;6.53;;;35.70;29.40;;;;;;6216162;23;20016;-75
2021/07/19 12:03:00;;;;;;;11.07;6.15;;;36.30;30.00;;;;;;6221452;23;20028;-75
2021/07/19 12:05:30;;;;;;;10.73;6.43;;;36.50;29.30;;;;;;6218821;23;20403;-74
2021/07/19 12:08:07;;;;;;;12.75;6.95;;;36.70;28.60;;;;;;6192790;23;20027;-75
2021/07/19 12:10:37;;;;;;;10.63;6.28;;;37.00;26.50;;;;;;6221002;23;20025;-75
2021/07/19 12:13:10;;;;;;;9.90;6.18;;;37.40;28.90;;;;;;6215157;23;20029;-75
2021/07/19 12:15:39;;;;;;;10.32;6.10;;;37.60;27.40;;;;;;6194093;23;20096;-75
2021/07/19 12:18:06;;;;;;;11.05;5.95;;;36.80;28.30;;;;;;6191800;23;20075;-75
2021/07/19 12:20:34;;;;;;;10.80;6.32;;;36.60;29.90;;;;;;6222748;23;20040;-75
2021/07/19 12:23:02;;;;;;;12.15;6.55;;;36.70;28.10;;;;;;6194735;23;20021;-74
2021/07/19 12:25:30;;;;;;;11.27;6.85;;;37.00;28.40;;;;;;6217815;23;20020;-75
2021/07/19 12:27:59;;;;;;;12.43;6.93;;;37.20;27.50;;;;;;6217977;23;20025;-75
2021/07/19 12:30:27;;;;;;;;;;;37.50;27.00;;;;;;6220392;23;20024;-75
2021/07/19 12:32:54;;;;;;;12.85;6.60;;;37.70;26.00;;;;;;6192419;23;19915;-75
2021/07/19 12:35:24;;;;;;;11.35;6.13;;;37.70;27.00;;;;;;6218236;23;20266;-75
2021/07/19 12:37:57;;;;;;;13.27;6.95;;;37.90;27.30;;;;;;6191825;23;20302;-75
2021/07/19 12:40:25;;;;;;;11.68;6.50;;;37.50;26.40;;;;;;6220826;23;20017;-75
2021/07/19 12:42:56;;;;;;;10.20;6.45;;;37.60;26.30;;;;;;6218820;23;20025;-75
2021/07/19 12:45:23;;;;;;;13.27;7.43;;;38.00;26.00;;;;;;6194625;23;20016;-75
2021/07/19 12:47:51;;;;;;;10.70;6.38;;;38.00;26.50;;;;;;6219641;23;20255;-75
2021/07/19 12:50:20;;;;;;;12.23;7.73;;;38.40;26.60;;;;;;6218530;23;20051;-75
2021/07/19 12:52:47;;;;;;;;;;;38.70;24.80;;;;;;6193801;23;20416;-75
2021/07/19 12:55:22;;;;;;;9.40;6.22;;;38.60;26.00;;;;;;6220711;23;19931;-75
2021/07/19 12:57:51;;;;;;;10.48;6.93;;;39.10;25.70;;;;;;6194453;23;20202;-75
2021/07/19 13:00:22;;;;;;;16.15;7.30;;;38.30;24.50;;;;;;6187666;23;20108;-76
2021/07/19 13:03:00;;;;;;;12.25;7.15;;;38.80;25.40;;;;;;6191213;23;20252;-75